createdAt,value
2018-12-05T00:00:49.928Z,1019.63
2018-12-05T00:01:59.962Z,1019.63
2018-12-05T00:03:09.651Z,1019.74
2018-12-05T00:04:19.591Z,1019.64
2018-12-05T00:05:29.267Z,1019.66
2018-12-05T00:06:38.705Z,1019.75
2018-12-05T00:07:48.657Z,1019.7
2018-12-05T00:08:58.612Z,1019.68
2018-12-05T00:10:08.551Z,1019.73
2018-12-05T00:11:18.490Z,1019.84
2018-12-05T00:12:28.181Z,1019.82
2018-12-05T00:13:37.879Z,1019.86
2018-12-05T00:14:47.826Z,1019.81
2018-12-05T00:15:57.853Z,1019.88
2018-12-05T00:17:07.798Z,1019.86
2018-12-05T00:18:17.747Z,1019.9
2018-12-05T00:19:27.450Z,1019.89
2018-12-05T00:20:37.129Z,1019.84
2018-12-05T00:21:47.065Z,1019.86
2018-12-05T00:22:57.003Z,1019.84
2018-12-05T00:24:06.962Z,1019.83
2018-12-05T00:25:16.442Z,1020.03
2018-12-05T00:26:26.384Z,1019.86
2018-12-05T00:27:36.085Z,1019.83
2018-12-05T00:28:46.030Z,1019.84
2018-12-05T00:29:55.737Z,1019.85
2018-12-05T00:31:05.680Z,1019.9
2018-12-05T00:32:15.376Z,1019.97
2018-12-05T00:33:25.310Z,1019.86
2018-12-05T00:34:34.987Z,1019.92
2018-12-05T00:35:44.672Z,1020
2018-12-05T00:36:54.617Z,1019.98
2018-12-05T00:38:04.562Z,1020.01
2018-12-05T00:39:14.506Z,1020.06
2018-12-05T00:40:24.448Z,1020.04
2018-12-05T00:41:34.397Z,1020.04
2018-12-05T00:42:44.333Z,1020.04
2018-12-05T00:43:54.019Z,1020.09
2018-12-05T00:45:03.963Z,1020.08
2018-12-05T00:46:13.668Z,1020.07
2018-12-05T00:47:23.353Z,1020.04
2018-12-05T00:48:33.036Z,1020.13
2018-12-05T00:49:42.982Z,1020.1
2018-12-05T00:50:52.926Z,1020.06
2018-12-05T00:52:02.872Z,1020.15
2018-12-05T00:53:12.564Z,1020.09
2018-12-05T00:54:22.514Z,1020.1
2018-12-05T00:55:32.199Z,1020.11
2018-12-05T00:56:41.885Z,1020.11
2018-12-05T00:57:51.582Z,1020.16
2018-12-05T00:59:01.524Z,1020.13
2018-12-05T01:00:11.483Z,1020.19
2018-12-05T01:01:21.179Z,1020.18
2018-12-05T01:02:30.867Z,1020.23
2018-12-05T01:03:40.808Z,1020.21
2018-12-05T01:04:50.776Z,1020.22
2018-12-05T01:06:00.498Z,1020.29
2018-12-05T01:07:10.432Z,1020.2
2018-12-05T01:08:20.115Z,1020.18
2018-12-05T01:09:29.812Z,1020.21
2018-12-05T01:10:39.240Z,1020.23
2018-12-05T01:11:49.181Z,1020.29
2018-12-05T01:12:59.116Z,1020.32
2018-12-05T01:14:09.056Z,1020.27
2018-12-05T01:15:18.760Z,1020.28
2018-12-05T01:16:28.462Z,1020.33
2018-12-05T01:17:38.172Z,1020.33
2018-12-05T01:18:48.111Z,1020.32
2018-12-05T01:19:58.050Z,1020.31
2018-12-05T01:21:07.996Z,1020.36
2018-12-05T01:22:17.729Z,1020.39
2018-12-05T01:23:27.669Z,1020.37
2018-12-05T01:24:37.609Z,1020.4
2018-12-05T01:25:47.293Z,1020.4
2018-12-05T01:26:57.227Z,1020.41
2018-12-05T01:28:07.176Z,1020.43
2018-12-05T01:29:17.116Z,1020.41
2018-12-05T01:30:27.062Z,1020.42
2018-12-05T01:31:37.003Z,1020.39
2018-12-05T01:32:46.927Z,1020.46
2018-12-05T01:33:56.602Z,1020.43
2018-12-05T01:35:06.297Z,1020.45
2018-12-05T01:36:16.249Z,1020.42
2018-12-05T01:37:26.190Z,1020.41
2018-12-05T01:38:35.378Z,1020.41
2018-12-05T01:39:45.332Z,1020.4
2018-12-05T01:40:55.028Z,1020.35
2018-12-05T01:42:04.466Z,1020.44
2018-12-05T01:43:14.168Z,1020.4
2018-12-05T01:44:23.874Z,1020.39
2018-12-05T01:45:33.816Z,1020.44
2018-12-05T01:46:43.589Z,1020.4
2018-12-05T01:47:53.286Z,1020.4
2018-12-05T01:49:02.979Z,1020.39
2018-12-05T01:50:13.052Z,1020.37
2018-12-05T01:51:22.999Z,1020.41
2018-12-05T01:52:32.701Z,1020.39
2018-12-05T01:53:42.385Z,1020.39
2018-12-05T01:54:52.074Z,1020.39
2018-12-05T01:56:02.017Z,1020.43
2018-12-05T01:57:11.706Z,1020.44
2018-12-05T01:58:21.643Z,1020.43
2018-12-05T01:59:31.579Z,1020.4
2018-12-05T02:00:41.010Z,1020.37
2018-12-05T02:01:50.949Z,1020.46
2018-12-05T02:03:00.991Z,1020.42
2018-12-05T02:04:10.686Z,1020.43
2018-12-05T02:05:20.372Z,1020.44
2018-12-05T02:06:30.064Z,1020.43
2018-12-05T02:07:40.023Z,1020.44
2018-12-05T02:08:49.967Z,1020.46
2018-12-05T02:09:59.914Z,1020.44
2018-12-05T02:11:09.606Z,1020.45
2018-12-05T02:12:19.045Z,1020.47
2018-12-05T02:13:29.003Z,1020.48
2018-12-05T02:14:38.953Z,1020.48
2018-12-05T02:15:48.900Z,1020.49
2018-12-05T02:16:58.903Z,1020.49
2018-12-05T02:18:08.848Z,1020.53
2018-12-05T02:19:18.788Z,1020.49
2018-12-05T02:20:28.733Z,1020.46
2018-12-05T02:21:38.412Z,1020.48
2018-12-05T02:22:48.362Z,1020.47
2018-12-05T02:23:58.327Z,1020.44
2018-12-05T02:25:08.085Z,1020.48
2018-12-05T02:26:18.026Z,1020.48
2018-12-05T02:27:27.968Z,1020.46
2018-12-05T02:28:37.701Z,1020.45
2018-12-05T02:29:47.634Z,1020.45
2018-12-05T02:30:57.587Z,1020.46
2018-12-05T02:32:07.530Z,1020.47
2018-12-05T02:33:17.454Z,1020.5
2018-12-05T02:34:27.151Z,1020.53
2018-12-05T02:35:37.087Z,1020.53
2018-12-05T02:36:47.032Z,1020.56
2018-12-05T02:37:56.718Z,1020.51
2018-12-05T02:39:06.165Z,1020.53
2018-12-05T02:40:15.864Z,1020.53
2018-12-05T02:41:25.874Z,1020.53
2018-12-05T02:42:35.566Z,1020.56
2018-12-05T02:43:45.504Z,1020.54
2018-12-05T02:44:55.178Z,1020.54
2018-12-05T02:46:05.207Z,1020.55
2018-12-05T02:47:14.676Z,1020.6
2018-12-05T02:48:24.377Z,1020.6
2018-12-05T02:49:33.802Z,1020.63
2018-12-05T02:50:43.508Z,1020.6
2018-12-05T02:51:53.446Z,1020.6
2018-12-05T02:53:02.636Z,1020.63
2018-12-05T02:54:12.573Z,1020.66
2018-12-05T02:55:22.529Z,1020.65
2018-12-05T02:56:32.503Z,1020.66
2018-12-05T02:57:42.207Z,1020.72
2018-12-05T02:58:51.659Z,1020.67
2018-12-05T03:00:01.352Z,1020.71
2018-12-05T03:01:11.057Z,1020.7
2018-12-05T03:02:20.500Z,1020.73
2018-12-05T03:03:30.439Z,1020.7
2018-12-05T03:04:40.154Z,1020.72
2018-12-05T03:05:50.099Z,1020.71
2018-12-05T03:06:59.806Z,1020.73
2018-12-05T03:08:09.753Z,1020.73
2018-12-05T03:09:19.778Z,1020.72
2018-12-05T03:10:29.712Z,1020.8
2018-12-05T03:11:39.661Z,1020.84
2018-12-05T03:12:49.613Z,1020.86
2018-12-05T03:13:59.312Z,1020.87
2018-12-05T03:15:09.002Z,1020.88
2018-12-05T03:16:18.929Z,1020.91
2018-12-05T03:17:28.875Z,1020.86
2018-12-05T03:18:38.818Z,1020.88
2018-12-05T03:19:48.501Z,1020.86
2018-12-05T03:20:58.468Z,1020.84
2018-12-05T03:22:07.902Z,1020.81
2018-12-05T03:23:17.903Z,1020.82
2018-12-05T03:24:27.591Z,1020.82
2018-12-05T03:25:37.559Z,1020.79
2018-12-05T03:26:47.263Z,1020.83
2018-12-05T03:27:57.224Z,1020.84
2018-12-05T03:29:06.928Z,1020.88
2018-12-05T03:30:16.391Z,1020.87
2018-12-05T03:31:26.428Z,1020.86
2018-12-05T03:32:36.252Z,1020.87
2018-12-05T03:33:45.979Z,1020.87
2018-12-05T03:34:55.435Z,1020.88
2018-12-05T03:36:05.123Z,1020.89
2018-12-05T03:37:15.074Z,1020.95
2018-12-05T03:38:24.623Z,1020.93
2018-12-05T03:39:34.558Z,1020.9
2018-12-05T03:40:44.249Z,1020.95
2018-12-05T03:41:53.944Z,1020.97
2018-12-05T03:43:03.389Z,1020.95
2018-12-05T03:44:13.337Z,1020.97
2018-12-05T03:45:23.305Z,1021.01
2018-12-05T03:46:34.367Z,1020.98
2018-12-05T03:47:44.315Z,1021.06
2018-12-05T03:48:54.391Z,1021.02
2018-12-05T03:50:04.095Z,1020.97
2018-12-05T03:51:13.784Z,1020.99
2018-12-05T03:52:23.737Z,1021.01
2018-12-05T03:53:33.671Z,1021.03
2018-12-05T03:54:43.605Z,1021.03
2018-12-05T03:55:53.302Z,1021.06
2018-12-05T03:57:03.015Z,1020.99
2018-12-05T03:58:12.711Z,1021.04
2018-12-05T03:59:22.649Z,1021.05
2018-12-05T04:00:32.088Z,1020.99
2018-12-05T04:01:41.780Z,1020.99
2018-12-05T04:02:51.727Z,1021.01
2018-12-05T04:04:01.430Z,1020.95
2018-12-05T04:05:11.377Z,1021.02
2018-12-05T04:06:21.317Z,1020.98
2018-12-05T04:07:31.004Z,1021.01
2018-12-05T04:08:40.959Z,1021.03
2018-12-05T04:09:50.415Z,1021.03
2018-12-05T04:11:00.131Z,1021.06
2018-12-05T04:12:09.827Z,1020.98
2018-12-05T04:13:19.776Z,1021.08
2018-12-05T04:14:29.223Z,1021.07
2018-12-05T04:15:38.933Z,1021.04
2018-12-05T04:16:48.877Z,1021.08
2018-12-05T04:17:58.563Z,1021.09
2018-12-05T04:19:07.779Z,1021.09
2018-12-05T04:20:17.710Z,1021.13
2018-12-05T04:21:27.651Z,1021.11
2018-12-05T04:22:37.625Z,1021.14
2018-12-05T04:23:47.562Z,1021.14
2018-12-05T04:24:57.495Z,1021.17
2018-12-05T04:26:07.204Z,1021.14
2018-12-05T04:27:16.954Z,1021.15
2018-12-05T04:28:26.892Z,1021.14
2018-12-05T04:29:36.877Z,1021.19
2018-12-05T04:30:46.596Z,1021.16
2018-12-05T04:31:56.578Z,1021.15
2018-12-05T04:33:06.539Z,1021.19
2018-12-05T04:34:16.228Z,1021.17
2018-12-05T04:35:26.173Z,1021.21
2018-12-05T04:36:35.877Z,1021.23
2018-12-05T04:37:45.571Z,1021.23
2018-12-05T04:38:55.618Z,1021.24
2018-12-05T04:40:05.307Z,1021.22
2018-12-05T04:41:15.241Z,1021.27
2018-12-05T04:42:25.209Z,1021.22
2018-12-05T04:43:34.893Z,1021.2
2018-12-05T04:44:44.843Z,1021.25
2018-12-05T04:45:54.796Z,1021.28
2018-12-05T04:47:04.234Z,1021.22
2018-12-05T04:48:14.176Z,1021.23
2018-12-05T04:49:24.120Z,1021.24
2018-12-05T04:50:34.490Z,1021.21
2018-12-05T04:51:44.510Z,1021.2
2018-12-05T04:52:54.449Z,1021.27
2018-12-05T04:54:04.388Z,1021.3
2018-12-05T04:55:14.100Z,1021.3
2018-12-05T04:56:24.051Z,1021.31
2018-12-05T04:57:33.509Z,1021.29
2018-12-05T04:58:42.945Z,1021.29
2018-12-05T04:59:52.641Z,1021.35
2018-12-05T05:01:02.347Z,1021.37
2018-12-05T05:02:12.054Z,1021.39
2018-12-05T05:03:21.748Z,1021.39
2018-12-05T05:04:31.192Z,1021.39
2018-12-05T05:05:40.903Z,1021.38
2018-12-05T05:06:50.839Z,1021.41
2018-12-05T05:08:00.789Z,1021.44
2018-12-05T05:09:10.745Z,1021.5
2018-12-05T05:10:20.693Z,1021.48
2018-12-05T05:11:30.636Z,1021.53
2018-12-05T05:12:40.338Z,1021.49
2018-12-05T05:13:50.289Z,1021.53
2018-12-05T05:15:00.241Z,1021.57
2018-12-05T05:16:09.926Z,1021.54
2018-12-05T05:17:19.873Z,1021.56
2018-12-05T05:18:29.814Z,1021.55
2018-12-05T05:19:39.744Z,1021.53
2018-12-05T05:20:49.675Z,1021.62
2018-12-05T05:21:59.615Z,1021.62
2018-12-05T05:23:09.564Z,1021.67
2018-12-05T05:24:19.505Z,1021.69
2018-12-05T05:25:29.200Z,1021.76
2018-12-05T05:26:38.902Z,1021.7
2018-12-05T05:27:48.840Z,1021.73
2018-12-05T05:28:58.532Z,1021.73
2018-12-05T05:30:08.495Z,1021.7
2018-12-05T05:31:18.669Z,1021.73
2018-12-05T05:32:29.142Z,1021.72
2018-12-05T05:33:38.849Z,1021.72
2018-12-05T05:34:48.788Z,1021.73
2018-12-05T05:35:58.737Z,1021.74
2018-12-05T05:37:08.438Z,1021.75
2018-12-05T05:38:18.372Z,1021.76
2018-12-05T05:39:27.811Z,1021.81
2018-12-05T05:40:37.753Z,1021.79
2018-12-05T05:41:47.434Z,1021.79
2018-12-05T05:42:57.354Z,1021.82
2018-12-05T05:44:07.297Z,1021.85
2018-12-05T05:45:17.937Z,1021.9
2018-12-05T05:46:27.869Z,1021.87
2018-12-05T05:47:37.815Z,1021.85
2018-12-05T05:48:47.750Z,1021.89
2018-12-05T05:49:57.682Z,1021.88
2018-12-05T05:51:07.373Z,1021.85
2018-12-05T05:52:17.330Z,1021.9
2018-12-05T05:53:27.017Z,1021.86
2018-12-05T05:54:36.937Z,1021.88
2018-12-05T05:55:46.450Z,1021.89
2018-12-05T05:56:56.142Z,1021.88
2018-12-05T05:58:06.081Z,1021.86
2018-12-05T05:59:15.767Z,1021.85
2018-12-05T06:00:25.818Z,1021.87
2018-12-05T06:01:35.748Z,1021.84
2018-12-05T06:02:45.694Z,1021.81
2018-12-05T06:03:55.643Z,1021.91
2018-12-05T06:05:05.327Z,1021.87
2018-12-05T06:06:15.017Z,1021.86
2018-12-05T06:07:24.711Z,1021.85
2018-12-05T06:08:34.399Z,1021.86
2018-12-05T06:09:44.091Z,1021.91
2018-12-05T06:10:54.027Z,1021.88
2018-12-05T06:12:03.980Z,1021.88
2018-12-05T06:13:13.938Z,1021.92
2018-12-05T06:14:23.406Z,1021.9
2018-12-05T06:15:33.101Z,1021.92
2018-12-05T06:16:43.056Z,1021.96
2018-12-05T06:17:53.002Z,1021.94
2018-12-05T06:19:02.947Z,1021.92
2018-12-05T06:20:13.041Z,1021.91
2018-12-05T06:21:22.991Z,1021.92
2018-12-05T06:22:32.429Z,1021.95
2018-12-05T06:23:42.116Z,1021.95
2018-12-05T06:24:51.800Z,1021.97
2018-12-05T06:26:01.740Z,1021.94
2018-12-05T06:27:11.685Z,1021.96
2018-12-05T06:28:21.121Z,1021.99
2018-12-05T06:29:30.817Z,1022.02
2018-12-05T06:30:40.506Z,1022.02
2018-12-05T06:31:50.448Z,1022.07
2018-12-05T06:33:00.386Z,1022.08
2018-12-05T06:34:10.325Z,1022.09
2018-12-05T06:35:20.271Z,1022.11
2018-12-05T06:36:30.204Z,1022.17
2018-12-05T06:37:39.887Z,1022.2
2018-12-05T06:38:49.855Z,1022.13
2018-12-05T06:40:02.223Z,1022.17
2018-12-05T06:41:12.148Z,1022.22
2018-12-05T06:42:21.840Z,1022.27
2018-12-05T06:43:31.782Z,1022.24
2018-12-05T06:44:41.710Z,1022.25
2018-12-05T06:45:51.667Z,1022.27
2018-12-05T06:47:00.851Z,1022.29
2018-12-05T06:48:10.799Z,1022.33
2018-12-05T06:49:20.746Z,1022.34
2018-12-05T06:50:30.703Z,1022.35
2018-12-05T06:51:40.647Z,1022.35
2018-12-05T06:52:50.612Z,1022.34
2018-12-05T06:54:00.784Z,1022.35
2018-12-05T06:55:11.107Z,1022.34
2018-12-05T06:56:20.794Z,1022.34
2018-12-05T06:57:30.732Z,1022.35
2018-12-05T06:58:40.414Z,1022.34
2018-12-05T06:59:50.354Z,1022.34
2018-12-05T07:01:00.319Z,1022.32
2018-12-05T07:02:10.305Z,1022.39
2018-12-05T07:03:19.992Z,1022.35
2018-12-05T07:04:29.673Z,1022.31
2018-12-05T07:05:39.361Z,1022.37
2018-12-05T07:06:49.062Z,1022.38
2018-12-05T07:07:59.004Z,1022.41
2018-12-05T07:09:08.686Z,1022.46
2018-12-05T07:10:17.868Z,1022.48
2018-12-05T07:11:26.825Z,1022.5
2018-12-05T07:12:36.787Z,1022.51
2018-12-05T07:13:46.715Z,1022.56
2018-12-05T07:14:56.651Z,1022.6
2018-12-05T07:16:06.341Z,1022.62
2018-12-05T07:17:16.298Z,1022.66
2018-12-05T07:18:25.747Z,1022.72
2018-12-05T07:19:36.775Z,1022.77
2018-12-05T07:20:46.717Z,1022.75
2018-12-05T07:21:56.665Z,1022.8
2018-12-05T07:23:06.360Z,1022.78
2018-12-05T07:24:16.051Z,1022.76
2018-12-05T07:25:26.010Z,1022.81
2018-12-05T07:26:35.993Z,1022.85
2018-12-05T07:27:45.681Z,1022.81
2018-12-05T07:28:55.693Z,1022.85
2018-12-05T07:30:05.374Z,1022.85
2018-12-05T07:31:15.312Z,1022.85
2018-12-05T07:32:25.261Z,1022.9
2018-12-05T07:33:34.960Z,1022.87
2018-12-05T07:34:44.916Z,1022.87
2018-12-05T07:35:54.867Z,1022.9
2018-12-05T07:37:04.561Z,1022.88
2018-12-05T07:38:19.298Z,1022.93
2018-12-05T07:39:29.537Z,1022.99
2018-12-05T07:40:39.471Z,1022.96
2018-12-05T07:41:49.155Z,1022.99
2018-12-05T07:42:59.107Z,1022.99
2018-12-05T07:44:09.049Z,1023.02
2018-12-05T07:45:18.827Z,1023.07
2018-12-05T07:46:28.538Z,1023.03
2018-12-05T07:47:38.320Z,1023.04
2018-12-05T07:48:48.266Z,1023.04
2018-12-05T07:49:58.221Z,1023.15
2018-12-05T07:51:07.953Z,1023
2018-12-05T07:52:17.919Z,1023.03
2018-12-05T07:53:27.637Z,1023.02
2018-12-05T07:54:37.625Z,1023.01
2018-12-05T07:55:47.163Z,1022.99
2018-12-05T07:56:57.114Z,1023.01
2018-12-05T07:58:06.844Z,1023.04
2018-12-05T07:59:16.824Z,1023.08
2018-12-05T08:00:26.772Z,1023.04
2018-12-05T08:01:36.519Z,1023.07
2018-12-05T08:02:46.473Z,1023.02
2018-12-05T08:03:56.434Z,1022.94
2018-12-05T08:05:06.142Z,1022.97
2018-12-05T08:06:16.069Z,1022.96
2018-12-05T08:07:25.514Z,1022.96
2018-12-05T08:08:35.457Z,1022.99
2018-12-05T08:09:45.413Z,1022.98
2018-12-05T08:10:55.369Z,1022.95
2018-12-05T08:12:05.115Z,1022.95
2018-12-05T08:13:15.081Z,1022.98
2018-12-05T08:14:25.031Z,1022.96
2018-12-05T08:15:34.980Z,1022.95
2018-12-05T08:16:44.922Z,1022.96
2018-12-05T08:17:54.872Z,1022.94
2018-12-05T08:19:04.814Z,1022.91
2018-12-05T08:20:14.547Z,1022.94
2018-12-05T08:21:24.515Z,1022.97
2018-12-05T08:22:33.985Z,1023
2018-12-05T08:23:43.691Z,1023.02
2018-12-05T08:24:53.382Z,1022.99
2018-12-05T08:26:03.067Z,1022.99
2018-12-05T08:27:12.790Z,1022.92
2018-12-05T08:28:22.240Z,1022.95
2018-12-05T08:29:31.952Z,1022.98
2018-12-05T08:30:42.131Z,1022.99
2018-12-05T08:31:51.841Z,1023.02
2018-12-05T08:33:01.544Z,1023.03
2018-12-05T08:34:11.560Z,1022.96
2018-12-05T08:35:21.528Z,1023
2018-12-05T08:36:31.576Z,1022.99
2018-12-05T08:37:41.294Z,1023.02
2018-12-05T08:38:50.987Z,1023.05
2018-12-05T08:40:00.959Z,1023.03
2018-12-05T08:41:10.907Z,1023
2018-12-05T08:42:20.863Z,1023.01
2018-12-05T08:43:30.820Z,1023
2018-12-05T08:44:40.522Z,1023
2018-12-05T08:45:50.531Z,1023.02
2018-12-05T08:47:00.494Z,1023.04
2018-12-05T08:48:10.444Z,1023
2018-12-05T08:49:20.677Z,1023
2018-12-05T08:50:30.655Z,1023.06
2018-12-05T08:51:40.342Z,1023.04
2018-12-05T08:52:50.296Z,1023.04
2018-12-05T08:54:00.266Z,1023.06
2018-12-05T08:55:09.957Z,1023.07
2018-12-05T08:56:19.911Z,1023.08
2018-12-05T08:57:29.908Z,1023.03
2018-12-05T08:58:39.623Z,1023.02
2018-12-05T08:59:49.079Z,1023.01
2018-12-05T09:00:58.773Z,1022.95
2018-12-05T09:02:08.476Z,1022.91
2018-12-05T09:03:18.442Z,1022.92
2018-12-05T09:04:28.140Z,1022.96
2018-12-05T09:05:37.849Z,1022.99
2018-12-05T09:06:47.825Z,1022.99
2018-12-05T09:07:57.312Z,1023.04
2018-12-05T09:09:07.268Z,1023.04
2018-12-05T09:10:17.221Z,1023.08
2018-12-05T09:11:27.164Z,1023.13
2018-12-05T09:12:37.358Z,1023.06
2018-12-05T09:13:47.310Z,1023.03
2018-12-05T09:14:57.279Z,1023.09
2018-12-05T09:16:07.760Z,1023.03
2018-12-05T09:17:20.693Z,1023.09
2018-12-05T09:18:30.423Z,1023.01
2018-12-05T09:19:40.395Z,1023.12
2018-12-05T09:20:50.358Z,1023.03
2018-12-05T09:22:00.084Z,1023.03
2018-12-05T09:23:10.047Z,1023.05
2018-12-05T09:24:20.016Z,1023.09
2018-12-05T09:25:29.998Z,1023.1
2018-12-05T09:26:39.953Z,1023.11
2018-12-05T09:27:49.891Z,1023.1
2018-12-05T09:28:59.665Z,1023.13
2018-12-05T09:30:09.639Z,1023.15
2018-12-05T09:31:19.373Z,1023.14
2018-12-05T09:32:29.351Z,1023.09
2018-12-05T09:33:39.296Z,1023.02
2018-12-05T09:34:49.013Z,1023.07
2018-12-05T09:35:58.972Z,1023.13
2018-12-05T09:37:08.691Z,1023.03
2018-12-05T09:38:18.395Z,1023.04
2018-12-05T09:39:28.347Z,1023.08
2018-12-05T09:40:42.162Z,1023.06
2018-12-05T09:41:51.870Z,1023.04
2018-12-05T09:43:01.321Z,1023.05
2018-12-05T09:44:11.269Z,1023.07
2018-12-05T09:45:20.735Z,1023.07
2018-12-05T09:46:30.960Z,1023.09
2018-12-05T09:47:40.915Z,1023.07
2018-12-05T09:48:50.894Z,1023.07
2018-12-05T09:50:00.354Z,1023.09
2018-12-05T09:51:10.319Z,1023.11
2018-12-05T09:52:20.299Z,1023.07
2018-12-05T09:53:31.841Z,1023.08
2018-12-05T09:54:41.682Z,1023.11
2018-12-05T09:55:51.685Z,1023.08
2018-12-05T09:57:01.157Z,1023.12
2018-12-05T09:58:10.607Z,1023.08
2018-12-05T09:59:20.315Z,1023.1
2018-12-05T10:00:30.021Z,1023.1
2018-12-05T10:01:39.974Z,1023.12
2018-12-05T10:02:49.693Z,1023.1
2018-12-05T10:03:59.152Z,1023.14
2018-12-05T10:05:08.882Z,1023.13
2018-12-05T10:06:18.837Z,1023.21
2018-12-05T10:07:28.792Z,1023.22
2018-12-05T10:08:38.742Z,1023.21
2018-12-05T10:09:48.697Z,1023.22
2018-12-05T10:10:58.149Z,1023.23
2018-12-05T10:12:08.102Z,1023.21
2018-12-05T10:13:18.049Z,1023.24
2018-12-05T10:14:28.001Z,1023.2
2018-12-05T10:15:37.961Z,1023.21
2018-12-05T10:16:47.921Z,1023.23
2018-12-05T10:17:57.631Z,1023.26
2018-12-05T10:19:07.077Z,1023.23
2018-12-05T10:20:17.101Z,1023.23
2018-12-05T10:21:27.077Z,1023.2
2018-12-05T10:22:36.791Z,1023.22
2018-12-05T10:23:46.520Z,1023.22
2018-12-05T10:24:56.485Z,1023.18
2018-12-05T10:26:06.181Z,1023.15
2018-12-05T10:27:16.187Z,1023.11
2018-12-05T10:28:26.145Z,1023.06
2018-12-05T10:29:35.883Z,1023.06
2018-12-05T10:30:45.857Z,1023.07
2018-12-05T10:31:55.907Z,1023.07
2018-12-05T10:33:05.666Z,1023.03
2018-12-05T10:34:15.624Z,1022.98
2018-12-05T10:35:25.592Z,1023.02
2018-12-05T10:36:34.805Z,1023.01
2018-12-05T10:37:44.769Z,1022.97
2018-12-05T10:38:55.055Z,1023.01
2018-12-05T10:40:04.512Z,1023
2018-12-05T10:41:13.964Z,1022.97
2018-12-05T10:42:23.934Z,1022.99
2018-12-05T10:43:34.593Z,1022.92
2018-12-05T10:44:44.156Z,1022.94
2018-12-05T10:45:54.126Z,1023.01
2018-12-05T10:47:04.105Z,1022.97
2018-12-05T10:48:13.896Z,1022.96
2018-12-05T10:49:23.637Z,1022.95
2018-12-05T10:50:33.598Z,1022.95
2018-12-05T10:51:43.551Z,1022.93
2018-12-05T10:52:53.255Z,1022.87
2018-12-05T10:54:02.996Z,1022.87
2018-12-05T10:55:12.963Z,1022.86
2018-12-05T10:56:22.945Z,1022.84
2018-12-05T10:57:32.664Z,1022.84
2018-12-05T10:58:42.620Z,1022.85
2018-12-05T10:59:52.584Z,1022.87
2018-12-05T11:01:02.535Z,1022.91
2018-12-05T11:02:12.491Z,1022.85
2018-12-05T11:03:23.908Z,1022.87
2018-12-05T11:04:33.735Z,1022.9
2018-12-05T11:05:43.688Z,1022.89
2018-12-05T11:06:53.651Z,1022.85
2018-12-05T11:08:03.608Z,1022.88
2018-12-05T11:09:13.561Z,1022.86
2018-12-05T11:10:23.268Z,1022.86
2018-12-05T11:11:33.239Z,1022.87
2018-12-05T11:12:43.202Z,1022.87
2018-12-05T11:13:52.909Z,1022.84
2018-12-05T11:15:02.381Z,1022.87
2018-12-05T11:16:12.370Z,1022.81
2018-12-05T11:17:22.355Z,1022.76
2018-12-05T11:18:32.915Z,1022.75
2018-12-05T11:19:42.855Z,1022.73
2018-12-05T11:20:52.561Z,1022.72
2018-12-05T11:22:02.564Z,1022.72
2018-12-05T11:23:12.026Z,1022.68
2018-12-05T11:24:21.765Z,1022.7
2018-12-05T11:25:31.648Z,1022.74
2018-12-05T11:26:41.651Z,1022.74
2018-12-05T11:27:51.679Z,1022.72
2018-12-05T11:29:01.739Z,1022.76
2018-12-05T11:30:11.474Z,1022.74
2018-12-05T11:31:21.176Z,1022.79
2018-12-05T11:32:31.127Z,1022.73
2018-12-05T11:33:41.109Z,1022.78
2018-12-05T11:34:51.073Z,1022.77
2018-12-05T11:36:01.027Z,1022.72
2018-12-05T11:37:10.978Z,1022.73
2018-12-05T11:38:21.380Z,1022.71
2018-12-05T11:39:31.352Z,1022.73
2018-12-05T11:40:41.318Z,1022.7
2018-12-05T11:41:51.280Z,1022.7
2018-12-05T11:43:01.111Z,1022.71
2018-12-05T11:44:10.839Z,1022.7
2018-12-05T11:45:20.317Z,1022.73
2018-12-05T11:46:30.111Z,1022.72
2018-12-05T11:47:40.074Z,1022.7
2018-12-05T11:48:49.760Z,1022.73
2018-12-05T11:49:59.721Z,1022.74
2018-12-05T11:51:09.914Z,1022.73
2018-12-05T11:52:19.651Z,1022.71
2018-12-05T11:53:29.636Z,1022.74
2018-12-05T11:54:39.392Z,1022.71
2018-12-05T11:55:48.602Z,1022.68
2018-12-05T11:56:58.578Z,1022.74
2018-12-05T11:58:08.532Z,1022.72
2018-12-05T11:59:18.737Z,1022.7
2018-12-05T12:00:28.705Z,1022.68
2018-12-05T12:01:38.436Z,1022.67
2018-12-05T12:02:47.940Z,1022.68
2018-12-05T12:03:57.691Z,1022.59
2018-12-05T12:05:07.642Z,1022.62
2018-12-05T12:06:17.633Z,1022.62
2018-12-05T12:07:27.605Z,1022.59
2018-12-05T12:08:37.392Z,1022.55
2018-12-05T12:09:46.858Z,1022.54
2018-12-05T12:10:56.851Z,1022.53
2018-12-05T12:12:06.566Z,1022.46
2018-12-05T12:13:16.256Z,1022.52
2018-12-05T12:14:26.219Z,1022.52
2018-12-05T12:15:36.206Z,1022.5
2018-12-05T12:16:46.189Z,1022.5
2018-12-05T12:17:56.158Z,1022.5
2018-12-05T12:19:05.635Z,1022.43
2018-12-05T12:20:15.598Z,1022.46
2018-12-05T12:21:25.299Z,1022.42
2018-12-05T12:22:35.267Z,1022.45
2018-12-05T12:23:44.980Z,1022.42
2018-12-05T12:24:56.214Z,1022.37
2018-12-05T12:26:06.191Z,1022.38
2018-12-05T12:27:16.144Z,1022.38
2018-12-05T12:28:26.161Z,1022.34
2018-12-05T12:29:36.144Z,1022.34
2018-12-05T12:30:46.088Z,1022.35
2018-12-05T12:31:56.097Z,1022.32
2018-12-05T12:33:06.059Z,1022.3
2018-12-05T12:34:16.055Z,1022.27
2018-12-05T12:35:25.781Z,1022.29
2018-12-05T12:36:35.586Z,1022.3
2018-12-05T12:37:45.361Z,1022.29
2018-12-05T12:38:54.823Z,1022.33
2018-12-05T12:40:04.552Z,1022.27
2018-12-05T12:41:14.261Z,1022.27
2018-12-05T12:42:24.019Z,1022.25
2018-12-05T12:43:33.992Z,1022.27
2018-12-05T12:44:43.967Z,1022.24
2018-12-05T12:45:54.001Z,1022.23
2018-12-05T12:47:03.955Z,1022.23
2018-12-05T12:48:13.474Z,1022.22
2018-12-05T12:49:22.946Z,1022.24
2018-12-05T12:50:32.926Z,1022.23
2018-12-05T12:51:42.914Z,1022.14
2018-12-05T12:52:52.862Z,1022.2
2018-12-05T12:54:02.602Z,1022.2
2018-12-05T12:55:12.607Z,1022.11
2018-12-05T12:56:22.551Z,1022.15
2018-12-05T12:57:32.590Z,1022.13
2018-12-05T12:58:42.284Z,1022.14
2018-12-05T12:59:51.999Z,1022.17
2018-12-05T13:01:01.973Z,1022.18
2018-12-05T13:02:11.940Z,1022.18
2018-12-05T13:03:21.634Z,1022.16
2018-12-05T13:04:31.361Z,1022.15
2018-12-05T13:05:41.319Z,1022.16
2018-12-05T13:06:51.013Z,1022.16
2018-12-05T13:08:00.954Z,1022.08
2018-12-05T13:09:10.894Z,1022.1
2018-12-05T13:10:20.860Z,1022.1
2018-12-05T13:11:30.829Z,1022.05
2018-12-05T13:12:40.779Z,1022.1
2018-12-05T13:13:50.741Z,1022.07
2018-12-05T13:15:00.450Z,1022.04
2018-12-05T13:16:10.424Z,1022.06
2018-12-05T13:17:20.214Z,1022.06
2018-12-05T13:18:29.688Z,1022.08
2018-12-05T13:19:39.405Z,1022.05
2018-12-05T13:20:48.878Z,1022.05
2018-12-05T13:21:58.655Z,1022.06
2018-12-05T13:23:08.625Z,1022.02
2018-12-05T13:24:18.594Z,1022.07
2018-12-05T13:25:28.301Z,1022.02
2018-12-05T13:26:38.237Z,1021.98
2018-12-05T13:27:48.204Z,1021.99
2018-12-05T13:28:58.170Z,1022
2018-12-05T13:30:08.138Z,1021.97
2018-12-05T13:31:17.603Z,1022.02
2018-12-05T13:32:27.298Z,1022
2018-12-05T13:33:36.997Z,1021.96
2018-12-05T13:34:46.951Z,1022
2018-12-05T13:35:56.905Z,1021.95
2018-12-05T13:37:06.607Z,1021.99
2018-12-05T13:38:16.309Z,1021.98
2018-12-05T13:39:26.264Z,1021.95
2018-12-05T13:40:35.981Z,1021.96
2018-12-05T13:41:47.571Z,1021.95
2018-12-05T13:42:57.527Z,1021.96
2018-12-05T13:44:07.227Z,1021.95
2018-12-05T13:45:16.932Z,1021.94
2018-12-05T13:46:30.031Z,1021.91
2018-12-05T13:47:39.925Z,1021.91
2018-12-05T13:48:49.882Z,1021.89
2018-12-05T13:49:59.843Z,1021.88
2018-12-05T13:51:09.811Z,1021.87
2018-12-05T13:52:19.854Z,1021.86
2018-12-05T13:53:29.544Z,1021.85
2018-12-05T13:54:39.505Z,1021.84
2018-12-05T13:55:49.497Z,1021.8
2018-12-05T13:56:59.459Z,1021.83
2018-12-05T13:58:09.516Z,1021.77
2018-12-05T13:59:19.497Z,1021.77
2018-12-05T14:00:29.456Z,1021.7
2018-12-05T14:01:39.158Z,1021.69
2018-12-05T14:02:48.877Z,1021.68
2018-12-05T14:03:58.829Z,1021.66
2018-12-05T14:05:08.542Z,1021.66
2018-12-05T14:06:18.521Z,1021.67
2018-12-05T14:07:28.489Z,1021.62
2018-12-05T14:08:39.786Z,1021.61